Munchen, Germany (EDDM) 48-21N 011-47E
Jun 24, 2019 - 01:50 PM EDT / 2019.06.24 1750 UTC
Wind: from the E (080 degrees) at 7 MPH (6 KT):0
Visibility: greater than 7 mile(s):0
Temperature: 77 F (25 C)
Dew Point: 60 F (16 C)
Relative Humidity: 57%
Pressure (altimeter): 30.15 in. Hg (1021 hPa)
ob: EDDM 241750Z 08006KT CAVOK 25/16 Q1021 NOSIG
cycle: 18